Time;durP1;ratioP1;P1;durP2;ratioP2;P2;SDS_P1;SDS_P2;PMS_P1;PMS_P2;Temp;Humidity;BMP_temperature;BMP_pressure;BME280_temperature;BME280_humidity;BME280_pressure;Samples;Min_cycle;Max_cycle;Signal;HPM_P1;HPM_P2
2023/06/26 00:00:48;;;;;;;14.98;11.18;;;23.60;69.50;;;;;;5072993;28;20037;-51
2023/06/26 00:03:15;;;;;;;18.90;11.48;;;23.50;69.50;;;;;;5072578;28;20039;-56
2023/06/26 00:05:43;;;;;;;16.30;10.85;;;23.60;69.50;;;;;;5072883;28;20025;-55
2023/06/26 00:08:09;;;;;;;37.07;11.53;;;23.60;69.60;;;;;;5072773;28;20036;-56
2023/06/26 00:10:35;;;;;;;17.55;11.13;;;23.60;69.60;;;;;;5072787;28;20025;-54
2023/06/26 00:13:02;;;;;;;15.48;11.50;;;23.50;69.60;;;;;;5072392;28;20051;-54
2023/06/26 00:15:31;;;;;;;16.55;11.35;;;23.50;69.50;;;;;;5072635;28;20380;-56
2023/06/26 00:17:58;;;;;;;15.70;11.05;;;23.60;69.60;;;;;;5072559;28;20032;-56
2023/06/26 00:20:24;;;;;;;15.15;10.85;;;23.50;69.50;;;;;;5072586;28;20024;-55
2023/06/26 00:22:50;;;;;;;16.10;10.95;;;23.50;69.50;;;;;;5072105;28;20111;-55
2023/06/26 00:25:16;;;;;;;15.52;10.18;;;23.50;69.60;;;;;;5072687;28;20104;-55
2023/06/26 00:27:42;;;;;;;14.30;10.80;;;23.50;69.60;;;;;;5072496;28;20099;-55
2023/06/26 00:30:10;;;;;;;18.70;10.95;;;23.50;69.60;;;;;;5072335;28;20032;-55
2023/06/26 00:32:36;;;;;;;13.82;10.52;;;23.50;69.60;;;;;;5072005;28;20028;-56
2023/06/26 00:35:03;;;;;;;15.85;11.02;;;23.50;69.60;;;;;;5072252;28;20029;-55
2023/06/26 00:37:29;;;;;;;15.40;10.80;;;23.60;69.70;;;;;;5054391;28;20025;-56
2023/06/26 00:39:54;;;;;;;14.52;11.05;;;23.50;69.60;;;;;;5054491;28;20033;-56
2023/06/26 00:42:20;;;;;;;14.35;10.48;;;23.50;69.60;;;;;;5054072;28;20029;-55
2023/06/26 00:44:46;;;;;;;16.70;10.32;;;23.50;69.60;;;;;;5071996;28;20056;-55
2023/06/26 00:47:15;;;;;;;14.18;10.32;;;23.50;69.50;;;;;;5054228;28;20110;-54
2023/06/26 00:49:41;;;;;;;15.35;10.98;;;23.50;69.60;;;;;;5072094;28;20029;-52
2023/06/26 00:52:07;;;;;;;15.98;9.80;;;23.50;69.50;;;;;;5054138;28;20514;-52
2023/06/26 00:54:33;;;;;;;18.25;10.88;;;23.50;69.50;;;;;;5071733;28;20029;-56
2023/06/26 00:56:59;;;;;;;14.85;10.82;;;23.50;69.60;;;;;;5071750;28;20514;-56
2023/06/26 00:59:26;;;;;;;16.48;10.50;;;23.50;69.50;;;;;;5054052;28;20036;-54
2023/06/26 01:01:51;;;;;;;15.13;11.18;;;23.50;69.40;;;;;;5071838;28;20029;-56
2023/06/26 01:04:17;;;;;;;16.25;11.07;;;23.50;69.50;;;;;;5071617;28;20036;-56
2023/06/26 01:06:50;;;;;;;16.10;10.93;;;23.50;69.50;;;;;;5071673;28;20056;-56
2023/06/26 01:09:19;;;;;;;16.85;10.48;;;23.50;69.50;;;;;;5071998;28;20292;-56
2023/06/26 01:11:46;;;;;;;17.15;10.93;;;23.50;69.50;;;;;;5053844;28;20113;-56
2023/06/26 01:14:12;;;;;;;17.80;11.90;;;23.50;69.40;;;;;;5071360;28;20075;-56
2023/06/26 01:16:40;;;;;;;14.82;11.20;;;23.50;69.30;;;;;;5053865;28;20039;-56
2023/06/26 01:19:10;;;;;;;17.38;11.48;;;23.50;69.20;;;;;;5071646;28;20501;-56
2023/06/26 01:21:43;;;;;;;16.52;11.20;;;23.50;69.20;;;;;;5071705;28;20438;-54
2023/06/26 01:24:21;;;;;;;16.67;10.88;;;23.50;69.20;;;;;;5071425;28;20514;-56
2023/06/26 01:26:50;;;;;;;14.90;10.70;;;23.50;69.30;;;;;;5053729;28;20029;-56
2023/06/26 01:29:18;;;;;;;15.63;10.68;;;23.50;69.40;;;;;;5071578;28;20024;-55
2023/06/26 01:31:47;;;;;;;14.43;10.73;;;23.50;69.30;;;;;;5071842;28;20549;-54
2023/06/26 01:34:15;;;;;;;20.95;11.20;;;23.50;69.30;;;;;;5071639;28;20027;-56
2023/06/26 01:36:41;;;;;;;15.25;10.95;;;23.50;69.20;;;;;;5071548;28;20025;-54
2023/06/26 01:39:08;;;;;;;16.92;11.00;;;23.50;69.20;;;;;;5071377;28;20028;-54
2023/06/26 01:41:35;;;;;;;15.35;10.48;;;23.50;69.20;;;;;;5071465;28;20063;-56
2023/06/26 01:44:17;;;;;;;15.80;11.15;;;23.50;69.10;;;;;;5071124;28;20032;-56
2023/06/26 01:47:04;;;;;;;16.65;11.27;;;23.50;69.10;;;;;;5053598;28;20258;-56
2023/06/26 01:50:22;;;;;;;15.77;10.57;;;23.50;69.20;;;;;;5053403;28;20029;-55
2023/06/26 01:53:02;;;;;;;17.98;11.13;;;23.50;69.10;;;;;;4970036;28;20043;-56
2023/06/26 01:55:44;;;;;;;16.85;11.10;;;23.50;69.00;;;;;;4970495;28;20043;-53
2023/06/26 01:58:10;;;;;;;14.40;10.77;;;23.50;69.00;;;;;;4954172;28;20047;-56
2023/06/26 02:00:37;;;;;;;13.98;10.50;;;23.50;69.00;;;;;;4954366;28;20453;-56
2023/06/26 02:03:04;;;;;;;17.02;11.35;;;23.50;69.00;;;;;;4969998;28;20362;-56
2023/06/26 02:05:33;;;;;;;16.92;12.40;;;23.50;68.90;;;;;;4953752;28;20086;-54
2023/06/26 02:08:03;;;;;;;15.68;11.95;;;23.50;68.90;;;;;;4954491;28;20063;-56
2023/06/26 02:10:30;;;;;;;18.00;11.40;;;23.50;68.80;;;;;;4970282;28;20101;-53
2023/06/26 02:12:56;;;;;;;16.08;11.63;;;23.50;68.80;;;;;;4969949;28;20038;-56
2023/06/26 02:15:22;;;;;;;17.63;11.20;;;23.50;68.90;;;;;;4954167;28;20383;-55
2023/06/26 02:17:48;;;;;;;14.07;10.95;;;23.50;68.90;;;;;;4970114;28;20078;-53
2023/06/26 02:20:15;;;;;;;15.27;12.15;;;23.50;69.00;;;;;;4973133;28;20045;-53
2023/06/26 02:22:42;;;;;;;14.75;11.02;;;23.50;69.10;;;;;;4973524;28;20043;-50
2023/06/26 02:25:10;;;;;;;17.17;11.68;;;23.50;69.10;;;;;;4973819;28;20051;-54
2023/06/26 02:27:36;;;;;;;15.48;12.30;;;23.50;69.20;;;;;;4957579;28;20039;-54
2023/06/26 02:30:02;;;;;;;16.83;12.00;;;23.50;69.20;;;;;;5042344;28;20097;-52
2023/06/26 02:32:28;;;;;;;17.50;12.57;;;23.50;69.10;;;;;;5074171;28;20060;-53
2023/06/26 02:34:53;;;;;;;16.63;10.98;;;23.50;69.10;;;;;;5074600;28;20063;-51
2023/06/26 02:37:20;;;;;;;17.90;11.57;;;23.50;69.20;;;;;;5074512;28;20472;-52
2023/06/26 02:39:46;;;;;;;16.35;11.90;;;23.50;69.20;;;;;;5056728;28;20067;-54
2023/06/26 02:42:12;;;;;;;16.17;12.00;;;23.50;69.10;;;;;;5056477;28;20055;-52
2023/06/26 02:44:38;;;;;;;14.68;11.18;;;23.40;69.00;;;;;;5056297;28;20438;-54
2023/06/26 02:47:04;;;;;;;17.38;11.88;;;23.50;69.10;;;;;;5056412;28;20024;-49
2023/06/26 02:49:31;;;;;;;18.35;11.70;;;23.40;69.10;;;;;;5039998;28;20024;-52
2023/06/26 02:51:57;;;;;;;15.60;11.98;;;23.40;69.20;;;;;;5056557;28;20565;-49
2023/06/26 02:54:26;;;;;;;19.70;12.43;;;23.40;69.20;;;;;;5056168;28;20559;-51
2023/06/26 02:56:55;;;;;;;16.77;11.80;;;23.40;69.10;;;;;;5056187;28;20080;-53
2023/06/26 02:59:26;;;;;;;15.30;11.98;;;23.40;69.00;;;;;;5056399;28;20032;-50
2023/06/26 03:01:53;;;;;;;18.63;11.52;;;23.40;69.00;;;;;;5056304;28;20125;-49
2023/06/26 03:04:23;;;;;;;15.50;11.30;;;23.40;69.00;;;;;;5055979;28;20020;-51
2023/06/26 03:06:49;;;;;;;17.58;12.40;;;23.40;69.00;;;;;;5074026;28;20025;-51
2023/06/26 03:09:16;;;;;;;15.80;12.43;;;23.40;69.00;;;;;;5056214;28;20048;-49
2023/06/26 03:11:43;;;;;;;16.25;12.20;;;23.40;69.70;;;;;;5056221;28;20025;-51
2023/06/26 03:14:10;;;;;;;15.75;11.30;;;23.40;69.10;;;;;;5055708;28;20155;-50
2023/06/26 03:16:37;;;;;;;15.25;11.73;;;23.40;69.20;;;;;;5056072;28;20491;-49
2023/06/26 03:19:03;;;;;;;16.48;11.95;;;23.40;69.20;;;;;;5073808;28;20105;-51
2023/06/26 03:21:30;;;;;;;17.10;12.35;;;23.40;69.30;;;;;;5055847;28;20497;-50
2023/06/26 03:23:56;;;;;;;15.30;12.32;;;23.40;69.30;;;;;;5055531;28;20103;-50
2023/06/26 03:26:28;;;;;;;17.00;12.00;;;23.40;69.30;;;;;;5073742;28;20126;-50
2023/06/26 03:28:55;;;;;;;16.45;11.65;;;23.40;69.40;;;;;;5055767;28;20028;-50
2023/06/26 03:31:21;;;;;;;21.02;12.43;;;23.40;69.30;;;;;;5073566;28;20487;-49
2023/06/26 03:33:47;;;;;;;18.00;12.10;;;23.40;69.40;;;;;;5055438;28;20025;-49
2023/06/26 03:36:13;;;;;;;15.40;11.82;;;23.40;69.40;;;;;;5055666;28;20029;-49
2023/06/26 03:38:40;;;;;;;15.45;11.90;;;23.40;69.30;;;;;;5055607;28;20036;-52
2023/06/26 03:41:06;;;;;;;15.88;11.90;;;23.40;69.30;;;;;;5055423;28;20036;-49
2023/06/26 03:43:32;;;;;;;17.80;12.50;;;23.40;69.40;;;;;;5055130;28;20557;-51
2023/06/26 03:46:19;;;;;;;16.38;11.82;;;23.40;69.40;;;;;;5072931;28;20043;-50
2023/06/26 03:48:46;;;;;;;15.52;12.27;;;23.40;69.30;;;;;;5055435;28;20032;-50
2023/06/26 03:51:12;;;;;;;15.98;12.50;;;23.40;69.30;;;;;;5055331;28;20392;-49
2023/06/26 03:53:38;;;;;;;17.17;12.60;;;23.30;69.20;;;;;;5055229;28;20036;-53
2023/06/26 03:56:04;;;;;;;20.52;12.00;;;23.30;69.20;;;;;;5055213;28;20032;-51
2023/06/26 03:58:30;;;;;;;18.73;13.30;;;23.40;69.20;;;;;;5054972;28;20409;-52
2023/06/26 04:00:57;;;;;;;18.83;12.75;;;23.30;69.20;;;;;;5055232;28;20025;-49
2023/06/26 04:03:24;;;;;;;16.52;13.05;;;23.30;69.20;;;;;;5054748;28;20082;-55
2023/06/26 04:05:50;;;;;;;14.48;11.23;;;23.40;69.20;;;;;;5055049;28;20476;-52
2023/06/26 04:08:16;;;;;;;15.52;12.60;;;23.30;69.20;;;;;;5054908;28;20042;-51
2023/06/26 04:10:45;;;;;;;19.60;13.30;;;23.40;69.30;;;;;;5072748;28;20028;-56
2023/06/26 04:13:11;;;;;;;17.45;12.52;;;23.30;69.20;;;;;;5072450;28;20020;-55
2023/06/26 04:15:37;;;;;;;16.08;12.75;;;23.30;69.10;;;;;;5072672;28;20484;-53
2023/06/26 04:18:03;;;;;;;16.98;13.63;;;23.30;69.20;;;;;;5054755;28;20028;-49
2023/06/26 04:20:29;;;;;;;30.65;18.52;;;23.40;69.30;;;;;;5072732;28;20028;-49
2023/06/26 04:22:55;;;;;;;21.98;17.15;;;23.40;69.20;;;;;;5072205;28;20060;-54
2023/06/26 04:25:20;;;;;;;21.63;15.32;;;23.40;69.10;;;;;;5072506;28;20310;-54
2023/06/26 04:27:46;;;;;;;17.42;13.13;;;23.40;69.10;;;;;;5072439;28;20095;-50
2023/06/26 04:30:12;;;;;;;21.08;13.98;;;23.40;69.20;;;;;;5072524;28;20017;-49
2023/06/26 04:32:38;;;;;;;16.73;12.63;;;23.40;69.10;;;;;;5072153;28;20032;-52
2023/06/26 04:35:04;;;;;;;16.63;12.30;;;23.30;68.90;;;;;;5072468;28;20050;-55
2023/06/26 04:37:30;;;;;;;17.00;12.35;;;23.40;68.80;;;;;;5072201;28;20036;-50
2023/06/26 04:39:56;;;;;;;17.52;12.70;;;23.40;68.70;;;;;;5072436;28;20032;-54
2023/06/26 04:42:22;;;;;;;19.25;11.98;;;23.30;68.60;;;;;;5071303;28;20035;-50
2023/06/26 04:44:47;;;;;;;19.27;12.23;;;23.40;68.70;;;;;;5072089;28;20032;-53
2023/06/26 04:47:16;;;;;;;15.25;11.90;;;23.40;68.50;;;;;;5072053;28;20047;-51
2023/06/26 04:49:45;;;;;;;15.77;12.00;;;23.40;68.50;;;;;;5072217;28;20048;-48
2023/06/26 04:52:15;;;;;;;16.48;12.50;;;23.40;68.40;;;;;;5072089;28;20060;-51
2023/06/26 04:54:41;;;;;;;;;;;23.40;68.40;;;;;;5072170;28;20059;-56
2023/06/26 04:57:08;;;;;;;16.05;12.45;;;23.40;68.40;;;;;;5071950;28;19912;-56
2023/06/26 04:59:34;;;;;;;19.30;12.57;;;23.40;68.40;;;;;;5071909;28;20039;-56
2023/06/26 05:02:00;;;;;;;17.10;12.13;;;23.40;68.90;;;;;;5071848;28;20025;-56
2023/06/26 05:04:26;;;;;;;18.73;11.57;;;23.40;68.30;;;;;;5071537;28;20391;-55
2023/06/26 05:06:51;;;;;;;15.93;11.18;;;23.40;68.30;;;;;;5071852;28;20040;-56
2023/06/26 05:09:17;;;;;;;17.30;12.60;;;23.40;68.40;;;;;;5071788;28;20074;-56
2023/06/26 05:11:43;;;;;;;17.08;12.30;;;23.40;68.10;;;;;;5071842;28;20033;-55
2023/06/26 05:14:09;;;;;;;15.75;11.75;;;23.40;68.00;;;;;;5071507;28;20069;-56
2023/06/26 05:16:35;;;;;;;14.45;11.77;;;23.40;68.10;;;;;;5071779;28;20096;-55
2023/06/26 05:19:01;;;;;;;16.35;12.98;;;23.40;68.10;;;;;;5071606;28;20055;-53
2023/06/26 05:21:28;;;;;;;17.00;12.38;;;23.40;68.10;;;;;;5071886;28;20369;-56
2023/06/26 05:23:57;;;;;;;18.75;12.75;;;23.40;68.10;;;;;;5071343;28;20025;-56
2023/06/26 05:26:23;;;;;;;17.73;12.40;;;23.40;68.20;;;;;;5071699;28;20020;-56
2023/06/26 05:28:49;;;;;;;19.23;13.48;;;23.40;68.20;;;;;;5071639;28;20024;-56
2023/06/26 05:31:15;;;;;;;16.98;12.05;;;23.30;68.10;;;;;;5071673;28;20074;-52
2023/06/26 05:33:44;;;;;;;16.40;12.65;;;23.30;68.00;;;;;;5053413;28;20051;-56
2023/06/26 05:36:13;;;;;;;16.38;11.82;;;23.30;68.10;;;;;;5071615;28;20041;-55
2023/06/26 05:38:40;;;;;;;16.52;11.95;;;23.30;68.00;;;;;;5071428;28;20078;-50
2023/06/26 05:41:06;;;;;;;17.67;12.50;;;23.30;68.10;;;;;;5071611;28;20032;-50
2023/06/26 05:43:31;;;;;;;17.25;12.20;;;23.30;68.10;;;;;;5071099;28;20074;-49
2023/06/26 05:45:58;;;;;;;19.60;12.07;;;23.30;68.00;;;;;;5071448;28;20025;-50
2023/06/26 05:48:24;;;;;;;16.98;12.40;;;23.40;68.20;;;;;;5071331;28;20036;-51
2023/06/26 05:50:50;;;;;;;15.98;11.68;;;23.40;68.20;;;;;;5071402;28;20028;-49
2023/06/26 05:53:16;;;;;;;22.45;11.73;;;23.40;68.20;;;;;;5071127;28;20032;-51
2023/06/26 05:55:42;;;;;;;14.35;11.93;;;23.40;68.30;;;;;;5075282;28;20036;-49
2023/06/26 05:58:10;;;;;;;16.38;11.57;;;23.40;68.40;;;;;;5075178;28;20043;-50
2023/06/26 06:00:36;;;;;;;18.65;11.52;;;23.40;68.50;;;;;;5075406;28;20020;-54
2023/06/26 06:03:02;;;;;;;14.43;11.02;;;23.40;68.50;;;;;;5074989;28;20024;-52
2023/06/26 06:05:28;;;;;;;19.88;11.13;;;23.50;68.50;;;;;;5075241;28;20112;-52
2023/06/26 06:07:54;;;;;;;15.40;10.93;;;23.50;68.60;;;;;;5075078;28;20112;-50
2023/06/26 06:10:20;;;;;;;15.50;11.93;;;23.50;68.40;;;;;;5075086;28;20032;-51
2023/06/26 06:12:46;;;;;;;15.13;10.90;;;23.50;68.30;;;;;;5074788;28;20028;-53
2023/06/26 06:15:11;;;;;;;13.77;9.65;;;23.50;68.30;;;;;;5074933;28;20025;-56
2023/06/26 06:17:37;;;;;;;15.70;10.40;;;23.50;68.10;;;;;;5075102;28;20074;-49
2023/06/26 06:20:04;;;;;;;13.80;10.23;;;23.50;67.70;;;;;;5074999;28;20066;-53
2023/06/26 06:22:30;;;;;;;13.20;8.90;;;23.50;67.80;;;;;;5074403;28;20036;-52
2023/06/26 06:24:55;;;;;;;18.25;11.23;;;23.50;67.70;;;;;;5074815;28;20438;-50
2023/06/26 06:27:21;;;;;;;15.52;10.75;;;23.60;67.30;;;;;;5074838;28;20031;-53
2023/06/26 06:29:47;;;;;;;18.60;11.98;;;23.60;67.30;;;;;;5074720;28;20048;-56
2023/06/26 06:32:13;;;;;;;19.08;11.52;;;23.60;67.10;;;;;;5074527;28;20055;-50
2023/06/26 06:34:39;;;;;;;18.65;12.10;;;23.70;66.90;;;;;;5074377;28;20033;-51
2023/06/26 06:37:04;;;;;;;19.55;11.35;;;23.70;66.00;;;;;;5074450;28;20020;-51
2023/06/26 06:39:30;;;;;;;15.98;11.30;;;23.70;65.80;;;;;;5074586;28;20077;-52
2023/06/26 06:41:56;;;;;;;21.73;12.52;;;23.70;65.80;;;;;;5074392;28;20058;-52
2023/06/26 06:44:22;;;;;;;16.08;11.07;;;23.70;65.70;;;;;;5056429;28;20143;-53
2023/06/26 06:46:48;;;;;;;13.90;10.73;;;23.70;65.20;;;;;;5074265;28;20074;-53
2023/06/26 06:49:14;;;;;;;15.43;10.70;;;23.80;65.50;;;;;;5074525;28;20013;-55
2023/06/26 06:51:39;;;;;;;15.25;10.23;;;23.80;65.30;;;;;;5074188;28;20514;-56
2023/06/26 06:54:05;;;;;;;16.40;10.10;;;23.80;65.40;;;;;;5074047;28;20035;-55
2023/06/26 06:56:31;;;;;;;16.48;10.23;;;23.80;65.60;;;;;;5074270;28;20394;-53
2023/06/26 06:58:57;;;;;;;14.85;10.10;;;23.90;65.60;;;;;;5074023;28;20028;-55
2023/06/26 07:01:23;;;;;;;14.65;10.00;;;23.90;65.50;;;;;;5074732;28;20025;-56
2023/06/26 07:03:48;;;;;;;14.75;9.73;;;23.90;65.50;;;;;;5073763;28;20403;-54
2023/06/26 07:06:14;;;;;;;14.77;9.70;;;23.90;65.30;;;;;;5073582;28;20028;-49
2023/06/26 07:08:40;;;;;;;14.30;9.20;;;23.80;65.20;;;;;;5073961;28;20594;-53
2023/06/26 07:11:06;;;;;;;14.68;9.07;;;23.80;65.50;;;;;;5074128;28;20028;-53
2023/06/26 07:13:32;;;;;;;13.90;9.15;;;23.80;64.90;;;;;;5073697;28;20024;-52
2023/06/26 07:15:57;;;;;;;14.23;8.75;;;23.80;65.50;;;;;;5073934;28;20033;-49
2023/06/26 07:18:23;;;;;;;14.52;8.70;;;24.00;65.50;;;;;;5073711;28;20029;-55
2023/06/26 07:20:49;;;;;;;11.73;8.30;;;24.00;65.30;;;;;;5073775;28;20439;-50
2023/06/26 07:23:15;;;;;;;12.02;8.27;;;24.00;65.10;;;;;;5073506;28;20028;-50
2023/06/26 07:25:40;;;;;;;11.93;7.88;;;24.10;65.30;;;;;;5073900;28;20043;-52
2023/06/26 07:28:13;;;;;;;13.15;7.88;;;24.10;65.20;;;;;;5073677;28;20017;-50
2023/06/26 07:30:39;;;;;;;17.40;9.23;;;24.00;64.80;;;;;;5074023;28;20033;-53
2023/06/26 07:33:05;;;;;;;12.68;8.45;;;24.00;65.40;;;;;;5073610;28;20033;-55
2023/06/26 07:35:31;;;;;;;11.30;8.07;;;24.00;65.30;;;;;;5073728;28;20514;-56
2023/06/26 07:37:57;;;;;;;11.70;8.27;;;24.10;65.70;;;;;;5073594;28;20020;-56
2023/06/26 07:40:23;;;;;;;15.57;8.40;;;24.20;64.80;;;;;;5055790;28;20495;-54
2023/06/26 07:42:50;;;;;;;10.15;7.18;;;24.20;64.10;;;;;;5073114;28;20503;-55
2023/06/26 07:45:15;;;;;;;13.50;8.00;;;24.30;63.70;;;;;;5073452;28;20036;-56
2023/06/26 07:47:41;;;;;;;11.55;6.97;;;24.20;63.80;;;;;;5073287;28;20021;-56
2023/06/26 07:50:07;;;;;;;12.48;6.97;;;24.20;64.00;;;;;;5073353;28;20100;-56
2023/06/26 07:52:34;;;;;;;14.23;7.68;;;24.30;64.00;;;;;;5073045;28;20032;-56
2023/06/26 07:54:59;;;;;;;10.30;6.78;;;24.30;63.40;;;;;;5073163;28;20106;-55
2023/06/26 07:57:25;;;;;;;9.18;6.50;;;24.30;63.30;;;;;;5072849;28;20052;-56
2023/06/26 07:59:51;;;;;;;10.23;6.32;;;24.40;62.60;;;;;;5073144;28;20028;-56
2023/06/26 08:02:17;;;;;;;18.95;7.13;;;24.50;62.50;;;;;;5060881;28;20120;-56
2023/06/26 08:04:44;;;;;;;14.07;6.70;;;24.60;62.60;;;;;;5052672;28;20024;-56
2023/06/26 08:07:10;;;;;;;14.27;6.43;;;24.60;62.00;;;;;;5052706;28;20025;-56
2023/06/26 08:09:36;;;;;;;8.48;5.90;;;24.60;62.10;;;;;;5052939;28;20052;-56
2023/06/26 08:12:02;;;;;;;8.98;6.05;;;24.70;61.10;;;;;;5052642;28;20052;-55
2023/06/26 08:14:28;;;;;;;9.10;6.00;;;24.70;60.50;;;;;;5052782;28;20448;-55
2023/06/26 08:16:54;;;;;;;12.63;6.93;;;24.80;60.80;;;;;;5051752;28;20109;-55
2023/06/26 08:19:20;;;;;;;13.57;7.40;;;24.80;60.30;;;;;;5052575;28;20017;-56
2023/06/26 08:21:46;;;;;;;18.10;6.40;;;24.80;61.60;;;;;;5046694;28;20257;-52
2023/06/26 08:24:13;;;;;;;38.42;7.70;;;24.80;61.10;;;;;;5030244;28;20056;-53
2023/06/26 08:26:39;;;;;;;15.75;5.88;;;24.80;60.70;;;;;;5030397;28;20053;-51
2023/06/26 08:29:08;;;;;;;11.30;6.55;;;24.90;59.90;;;;;;5048880;28;20059;-54
2023/06/26 08:31:37;;;;;;;9.77;6.03;;;24.90;59.40;;;;;;5048983;28;20013;-54
2023/06/26 08:34:04;;;;;;;11.48;6.75;;;24.90;58.80;;;;;;5048682;28;20029;-53
2023/06/26 08:36:30;;;;;;;8.93;5.60;;;25.00;59.10;;;;;;5048292;28;20512;-55
2023/06/26 08:38:56;;;;;;;9.90;5.88;;;25.00;60.00;;;;;;5054886;28;20056;-53
2023/06/26 08:41:22;;;;;;;7.75;6.05;;;25.00;59.00;;;;;;5048905;28;20064;-50
2023/06/26 08:43:50;;;;;;;10.70;6.45;;;25.10;58.70;;;;;;5048939;28;20069;-49
2023/06/26 08:46:17;;;;;;;12.43;6.68;;;25.10;59.10;;;;;;5049361;28;20057;-54
2023/06/26 08:48:48;;;;;;;7.78;5.80;;;25.00;58.90;;;;;;5048741;28;20082;-55
2023/06/26 08:51:17;;;;;;;10.32;6.05;;;25.10;58.80;;;;;;5049714;28;20247;-55
2023/06/26 08:53:55;;;;;;;9.30;6.65;;;25.10;58.80;;;;;;5048619;28;20039;-56
2023/06/26 08:56:23;;;;;;;9.98;6.47;;;25.10;58.20;;;;;;5048954;28;20056;-55
2023/06/26 08:58:50;;;;;;;10.27;5.95;;;25.10;58.50;;;;;;5030334;28;20040;-55
2023/06/26 09:01:17;;;;;;;14.60;6.18;;;25.00;58.10;;;;;;5048968;28;20055;-53
2023/06/26 09:03:43;;;;;;;8.20;5.68;;;25.00;58.90;;;;;;5048134;28;20040;-56
2023/06/26 09:06:09;;;;;;;11.75;6.15;;;25.00;58.10;;;;;;5049306;28;20070;-55
2023/06/26 09:08:35;;;;;;;7.85;5.53;;;25.10;59.60;;;;;;5047434;28;20443;-55
2023/06/26 09:11:01;;;;;;;12.32;5.50;;;25.20;57.40;;;;;;5048931;28;20025;-55
2023/06/26 09:13:30;;;;;;;8.50;5.50;;;25.30;56.60;;;;;;5047761;28;20025;-53
2023/06/26 09:15:55;;;;;;;7.53;5.70;;;25.40;56.60;;;;;;5048681;28;20381;-53
2023/06/26 09:18:21;;;;;;;6.53;4.53;;;25.50;55.80;;;;;;5048527;28;20040;-55
2023/06/26 09:20:48;;;;;;;8.73;5.07;;;25.60;55.10;;;;;;5049255;28;20143;-54
2023/06/26 09:23:14;;;;;;;8.27;5.15;;;25.60;54.20;;;;;;5048027;28;20031;-55
2023/06/26 09:25:40;;;;;;;9.48;5.20;;;25.70;55.60;;;;;;5048556;28;20055;-56
2023/06/26 09:28:07;;;;;;;7.43;5.10;;;25.70;55.10;;;;;;5030274;28;20071;-55
2023/06/26 09:30:34;;;;;;;8.55;5.13;;;25.70;55.30;;;;;;5048256;28;20017;-52
2023/06/26 09:33:16;;;;;;;7.50;5.43;;;25.60;56.00;;;;;;5048680;28;20399;-53
2023/06/26 09:35:43;;;;;;;13.32;5.60;;;25.70;55.20;;;;;;5048167;28;20028;-53
2023/06/26 09:38:09;;;;;;;11.68;5.43;;;25.70;56.00;;;;;;5047948;28;20021;-55
2023/06/26 09:40:35;;;;;;;10.18;5.90;;;25.70;55.70;;;;;;5040423;28;20526;-54
2023/06/26 09:43:05;;;;;;;8.60;5.18;;;25.80;54.60;;;;;;5047566;28;20028;-56
2023/06/26 09:45:33;;;;;;;6.30;4.22;;;25.90;53.20;;;;;;5046881;28;20028;-56
2023/06/26 09:48:02;;;;;;;7.70;5.40;;;26.00;53.70;;;;;;5043891;28;20029;-53
2023/06/26 09:50:28;;;;;;;12.40;5.72;;;26.00;54.20;;;;;;5030510;28;20241;-55
2023/06/26 09:52:55;;;;;;;14.02;5.97;;;26.00;56.20;;;;;;5047666;28;20029;-52
2023/06/26 09:55:22;;;;;;;11.60;5.45;;;25.90;56.80;;;;;;5048153;28;20032;-52
2023/06/26 09:57:50;;;;;;;12.00;5.75;;;25.90;55.40;;;;;;5065608;23;20028;-41
2023/06/26 10:00:16;;;;;;;8.27;5.70;;;25.90;55.80;;;;;;5028454;28;20408;-42
2023/06/26 10:02:42;;;;;;;5.93;4.70;;;25.90;55.40;;;;;;5030204;28;20489;-40
2023/06/26 10:05:08;;;;;;;7.40;5.18;;;26.00;54.70;;;;;;5028547;28;20104;-42
2023/06/26 10:07:35;;;;;;;11.60;4.90;;;26.20;54.80;;;;;;5031744;28;20092;-41
2023/06/26 10:10:03;;;;;;;8.65;5.15;;;26.00;56.20;;;;;;5045170;28;20080;-48
2023/06/26 10:12:31;;;;;;;8.15;5.30;;;25.80;56.80;;;;;;5030399;28;20123;-42
2023/06/26 10:14:58;;;;;;;10.25;5.57;;;25.60;57.30;;;;;;5028309;28;20034;-44
2023/06/26 10:17:28;;;;;;;8.70;5.22;;;25.50;58.10;;;;;;5029409;28;20017;-43
2023/06/26 10:19:56;;;;;;;10.38;5.18;;;25.40;58.80;;;;;;5028585;28;20033;-42
2023/06/26 10:22:27;;;;;;;9.05;5.18;;;25.30;59.10;;;;;;5027598;28;20029;-41
2023/06/26 10:24:58;;;;;;;11.05;5.50;;;25.20;59.60;;;;;;5027879;28;20110;-43
2023/06/26 10:27:28;;;;;;;8.20;4.97;;;25.10;60.70;;;;;;5029572;28;20025;-42
2023/06/26 10:29:56;;;;;;;8.13;5.13;;;25.10;61.50;;;;;;5028244;28;20026;-42
2023/06/26 10:32:25;;;;;;;6.63;4.90;;;25.10;61.40;;;;;;5028047;28;20061;-42
2023/06/26 10:34:52;;;;;;;8.60;5.85;;;25.00;61.80;;;;;;5028260;28;20060;-46
2023/06/26 10:37:18;;;;;;;14.15;5.40;;;25.00;61.70;;;;;;5027810;28;20025;-48
2023/06/26 10:39:52;;;;;;;9.20;4.88;;;25.00;61.50;;;;;;5028451;28;20032;-44
2023/06/26 10:42:19;;;;;;;9.00;5.22;;;25.00;62.00;;;;;;5032210;28;20037;-43
2023/06/26 10:44:46;;;;;;;9.85;5.35;;;25.00;62.50;;;;;;5031453;28;20108;-45
2023/06/26 10:47:30;;;;;;;7.15;5.43;;;24.90;61.90;;;;;;5031659;28;20033;-44
2023/06/26 10:49:56;;;;;;;10.13;5.28;;;24.90;62.60;;;;;;5036691;28;20492;-46
2023/06/26 10:52:22;;;;;;;8.50;4.95;;;24.90;62.80;;;;;;5032265;28;20056;-47
2023/06/26 10:54:47;;;;;;;9.68;5.20;;;24.90;62.80;;;;;;5020099;28;20416;-43
2023/06/26 10:57:24;;;;;;;8.82;5.50;;;24.90;62.60;;;;;;5031853;28;20030;-42
2023/06/26 11:00:17;;;;;;;11.40;5.60;;;24.90;63.00;;;;;;5033725;28;20063;-42
2023/06/26 11:02:53;;;;;;;8.38;5.22;;;24.90;62.70;;;;;;5034176;28;20025;-42
2023/06/26 11:05:31;;;;;;;9.93;5.40;;;24.90;63.30;;;;;;5033218;28;20021;-42
2023/06/26 11:08:07;;;;;;;9.00;5.55;;;24.90;63.10;;;;;;5036164;28;20075;-41
2023/06/26 11:11:00;;;;;;;6.85;5.05;;;24.90;63.40;;;;;;5031070;28;20021;-41
2023/06/26 11:13:26;;;;;;;13.73;5.68;;;24.90;63.40;;;;;;5033520;28;20032;-42
2023/06/26 11:15:52;;;;;;;8.35;5.53;;;24.90;63.40;;;;;;5030769;28;20028;-41
2023/06/26 11:18:18;;;;;;;7.22;5.13;;;24.90;63.40;;;;;;5037752;28;20399;-42
2023/06/26 11:20:44;;;;;;;8.88;5.35;;;24.90;63.40;;;;;;5030966;28;20029;-41
2023/06/26 11:23:11;;;;;;;8.15;5.07;;;24.90;63.00;;;;;;5036311;28;20017;-42
2023/06/26 11:25:38;;;;;;;7.80;4.95;;;24.90;63.20;;;;;;5030887;28;20084;-41
2023/06/26 11:28:05;;;;;;;8.27;5.47;;;24.90;63.20;;;;;;5032653;28;20034;-41
2023/06/26 11:30:32;;;;;;;8.63;5.25;;;24.90;62.90;;;;;;5026910;28;20030;-43
2023/06/26 11:33:10;;;;;;;10.10;5.32;;;24.90;62.70;;;;;;5029919;28;20484;-42
2023/06/26 11:35:37;;;;;;;9.98;4.88;;;24.90;62.80;;;;;;5027472;28;20492;-46
2023/06/26 11:38:04;;;;;;;9.43;5.82;;;24.90;62.90;;;;;;5032066;28;20500;-41
2023/06/26 11:40:34;;;;;;;9.73;5.65;;;24.90;62.90;;;;;;5029292;28;20443;-41
2023/06/26 11:43:03;;;;;;;15.40;5.03;;;24.90;62.60;;;;;;5031576;28;20546;-43
2023/06/26 11:45:30;;;;;;;13.15;6.28;;;24.90;62.80;;;;;;5031271;28;20021;-41
2023/06/26 11:47:56;;;;;;;20.13;6.75;;;25.10;61.40;;;;;;5032918;28;20017;-42
2023/06/26 11:50:23;;;;;;;13.98;6.35;;;25.10;61.40;;;;;;5032021;28;20087;-41
2023/06/26 11:52:58;;;;;;;14.43;6.97;;;25.10;61.20;;;;;;5031672;28;20037;-40
2023/06/26 11:55:26;;;;;;;28.73;7.40;;;25.10;63.00;;;;;;5031705;28;20420;-41
2023/06/26 11:57:56;;;;;;;21.38;7.40;;;25.10;64.10;;;;;;5030730;28;20053;-42
2023/06/26 12:00:23;;;;;;;21.17;7.32;;;25.00;64.70;;;;;;5030242;28;20029;-43
2023/06/26 12:02:51;;;;;;;22.92;7.78;;;25.00;65.80;;;;;;5030811;28;20037;-41
2023/06/26 12:05:17;;;;;;;19.45;7.00;;;25.00;67.60;;;;;;5032538;28;20079;-42
2023/06/26 12:07:45;;;;;;;14.80;6.32;;;24.90;67.30;;;;;;5030273;28;20025;-41
2023/06/26 12:10:13;;;;;;;17.77;6.78;;;24.90;67.10;;;;;;5026924;28;20062;-42
2023/06/26 12:12:40;;;;;;;15.38;7.00;;;24.90;66.60;;;;;;5030237;28;20026;-41
2023/06/26 12:15:07;;;;;;;14.73;6.75;;;24.90;66.70;;;;;;5029529;28;20501;-40
2023/06/26 12:17:37;;;;;;;12.88;6.45;;;24.90;67.60;;;;;;5029781;28;20037;-42
2023/06/26 12:20:05;;;;;;;15.73;6.60;;;24.80;66.80;;;;;;5032569;28;20026;-45
2023/06/26 12:22:35;;;;;;;13.07;6.88;;;24.90;67.40;;;;;;5029493;28;20025;-41
2023/06/26 12:25:01;;;;;;;14.52;6.47;;;24.90;67.40;;;;;;5032809;28;20021;-42
2023/06/26 12:27:27;;;;;;;15.38;6.82;;;24.90;67.10;;;;;;5030335;28;20120;-40
2023/06/26 12:29:54;;;;;;;16.65;6.85;;;24.90;67.70;;;;;;5029787;28;20017;-42
2023/06/26 12:32:24;;;;;;;12.90;6.75;;;24.80;67.60;;;;;;5030315;28;20132;-41
2023/06/26 12:34:51;;;;;;;13.15;7.10;;;24.80;67.80;;;;;;5033362;28;20104;-45